Flight Track Log - Related Links

Times and Time Zones

All times are in EDT time to prevent confusion due to time zone crossing. See the SLI2200 flight status page for this flight to view local times or setup timezone preferences in your user account.

Time Position Orientation Groundspeed Altitude Reporting Facility
EDT Latitude Longitude Course Direction KTS MPH feet Rate Location/Type
Mon 09:49:32 AM 25.7284 -100.5496 263° West  Level Estimated
Mon 09:50:32 AM 25.7171 -100.6472 263° West  Level Estimated
Mon 09:51:32 AM 25.7059 -100.7448 263° West  Level Estimated
Mon 09:52:32 AM 25.6945 -100.8424 263° West  Level Estimated
Mon 09:53:32 AM 25.6831 -100.9399 263° West  Level Estimated
Mon 09:54:32 AM 25.6716 -101.0374 263° West  Level Estimated
Mon 09:55:32 AM 25.6600 -101.1349 262° West  Level Estimated
Mon 09:56:32 AM 25.6484 -101.2324 262° West  Level Estimated
Mon 09:57:32 AM 25.6367 -101.3299 262° West  Level Estimated
Mon 09:58:32 AM 25.6250 -101.4274 262° West  Level Estimated
Mon 09:59:32 AM 25.6131 -101.5248 262° West  Level Estimated
Mon 10:00:32 AM 25.6012 -101.6222 262° West  Level Estimated
Mon 10:01:32 AM 25.5893 -101.7196 262° West  Level Estimated
Mon 10:02:32 AM 25.5773 -101.8170 262° West  Level Estimated
Mon 10:03:32 AM 25.5652 -101.9144 262° West  Level Estimated
Mon 10:04:32 AM 25.5531 -102.0117 262° West  Level Estimated
Mon 10:05:32 AM 25.5409 -102.1090 262° West  Level Estimated
Mon 10:06:32 AM 25.5286 -102.2063 262° West  Level Estimated
Mon 10:07:32 AM 25.5163 -102.3036 262° West  Level Estimated
Mon 10:08:32 AM 25.5039 -102.4009 262° West  Level Estimated
Mon 10:09:32 AM 25.4914 -102.4981 262° West  Level Estimated
Mon 10:10:32 AM 25.4789 -102.5953 262° West  Level Estimated
Mon 10:11:32 AM 25.4663 -102.6925 262° West  Level Estimated
Mon 10:12:32 AM 25.4536 -102.7897 262° West  Level Estimated
Mon 10:13:32 AM 25.4409 -102.8869 262° West  Level Estimated
Mon 10:14:32 AM 25.4281 -102.9840 262° West  Level Estimated
Mon 10:15:32 AM 25.4153 -103.0811 262° West  Level Estimated
Mon 10:16:32 AM 25.4024 -103.1782 262° West  Level Estimated
Mon 10:17:32 AM 25.3894 -103.2753 262° West  Level Estimated
Mon 10:18:32 AM 25.3764 -103.3724 262° West  Level Estimated
Mon 10:19:32 AM 25.3633 -103.4694 261° West  Level Estimated
Mon 10:20:32 AM 25.3501 -103.5664 261° West  Level Estimated
Mon 10:21:32 AM 25.3369 -103.6634 261° West  Level Estimated
Mon 10:22:32 AM 25.3236 -103.7604 261° West  Level Estimated
Mon 10:23:32 AM 25.3102 -103.8573 261° West  Level Estimated
Mon 10:24:32 AM 25.2968 -103.9542 261° West  Level Estimated
Mon 10:25:32 AM 25.2833 -104.0511 261° West  Level Estimated
Mon 10:26:32 AM 25.2698 -104.1480 261° West  Level Estimated
Mon 10:27:32 AM 25.2562 -104.2449 261° West  Level Estimated
Mon 10:28:32 AM 25.2425 -104.3417 261° West  Level Estimated
Mon 10:29:32 AM 25.2288 -104.4385 261° West  Level Estimated
Mon 10:30:32 AM 25.2150 -104.5353 261° West  Level Estimated
Mon 10:31:32 AM 25.2011 -104.6321 261° West  Level Estimated
Mon 10:32:32 AM 25.1872 -104.7289 261° West  Level Estimated
Mon 10:33:32 AM 25.1732 -104.8256 261° West  Level Estimated
Mon 10:34:32 AM 25.1592 -104.9223 261° West  Level Estimated
Mon 10:35:32 AM 25.1451 -105.0190 261° West  Level Estimated
Mon 10:36:32 AM 25.1309 -105.1156 261° West  Level Estimated
Mon 10:37:32 AM 25.1167 -105.2123 261° West  Level Estimated
Mon 10:38:32 AM 25.1024 -105.3089 261° West  Level Estimated
Mon 10:39:32 AM 25.0880 -105.4055 261° West  Level Estimated
Mon 10:40:32 AM 25.0736 -105.5021 261° West  Level Estimated
Mon 10:41:32 AM 25.0591 -105.5986 261° West  Level Estimated
Mon 10:42:32 AM 25.0446 -105.6952 261° West  Level Estimated
Mon 10:43:32 AM 25.0299 -105.7917 260° West  Level Estimated
Mon 10:44:32 AM 25.0153 -105.8881 260° West  Level Estimated
Mon 10:45:32 AM 25.0005 -105.9846 260° West  Level Estimated
Mon 10:46:32 AM 24.9857 -106.0810 260° West  Level Estimated
Mon 10:47:32 AM 24.9709 -106.1774 260° West  Level Estimated
Mon 10:48:32 AM 24.9560 -106.2738 260° West  Level Estimated
Mon 10:49:32 AM 24.9410 -106.3702 260° West  Level Estimated
Mon 10:50:32 AM 24.9259 -106.4665 260° West  Level Estimated
Mon 10:51:32 AM 24.9108 -106.5629 260° West  Level Estimated
Mon 10:52:32 AM 24.8957 -106.6591 260° West  Level Estimated
Mon 10:53:32 AM 24.8804 -106.7554 260° West  Level Estimated
Mon 10:54:32 AM 24.8651 -106.8517 260° West  Level Estimated
Mon 10:55:32 AM 24.8498 -106.9479 260° West  Level Estimated
Mon 10:56:32 AM 24.8344 -107.0441 260° West  Level Estimated
Mon 10:57:32 AM 24.8189 -107.1403 260° West  Level Estimated
Mon 10:58:32 AM 24.8033 -107.2364 260° West  Level Estimated
Mon 10:59:32 AM 24.7877 -107.3325 260° West  Level Estimated
Mon 11:00:32 AM 24.7721 -107.4286 260° West  Level Estimated
Mon 11:01:32 AM 24.7564 -107.5247 80° East  Level Estimated
Mon 11:02:32 AM 24.7721 -107.4286 260° West  Level Estimated
Mon 11:03:32 AM 24.7564 -107.5247 80° East  Level Estimated
Mon 11:04:32 AM 24.7721 -107.4286 260° West  Level Estimated
Mon 11:05:32 AM 24.7564 -107.5247 80° East  Level Estimated
Mon 11:06:32 AM 24.7721 -107.4286 260° West  Level Estimated
Mon 11:07:32 AM 24.7564 -107.5247 80° East  Level Estimated
Mon 11:08:32 AM 24.7721 -107.4286 260° West  Level Estimated
Mon 11:09:32 AM 24.7564 -107.5247 80° East  Level Estimated
Mon 11:10:32 AM 24.7721 -107.4286 80° East  Level Estimated

Login

Don't have an account? Register now (free) for customized features, flight alerts, and more!